createdAt,value
2023-04-30T00:00:52.446Z,100565.28
2023-04-30T00:03:20.271Z,100566.81
2023-04-30T00:05:51.638Z,100572.81
2023-04-30T00:08:19.252Z,100574.44
2023-04-30T00:10:46.907Z,100571.56
2023-04-30T00:13:14.747Z,100573.66
2023-04-30T00:15:42.349Z,100573.13
2023-04-30T00:18:12.083Z,100583.03
2023-04-30T00:20:39.899Z,100583.47
2023-04-30T00:23:07.803Z,100578.56
2023-04-30T00:25:36.095Z,100582.00
2023-04-30T00:28:03.816Z,100580.06
2023-04-30T00:30:32.018Z,100577.59
2023-04-30T00:32:59.713Z,100575.16
2023-04-30T00:35:28.642Z,100582.53
2023-04-30T00:37:56.427Z,100576.56
2023-04-30T00:40:24.125Z,100584.38
2023-04-30T00:42:52.466Z,100579.63
2023-04-30T00:45:22.029Z,100588.03
2023-04-30T00:47:49.870Z,100581.09
2023-04-30T00:50:17.587Z,100579.81
2023-04-30T00:52:46.988Z,100582.97
2023-04-30T00:55:16.840Z,100595.97
2023-04-30T00:57:44.530Z,100594.47
2023-04-30T01:00:13.826Z,100594.41
2023-04-30T01:02:41.986Z,100604.38
2023-04-30T01:05:10.032Z,100602.84
2023-04-30T01:07:44.645Z,100601.44
2023-04-30T01:10:16.861Z,100608.81
2023-04-30T01:12:51.249Z,100605.41
2023-04-30T01:15:25.935Z,100609.84
2023-04-30T01:17:57.806Z,100611.00
2023-04-30T01:20:30.241Z,100614.78
2023-04-30T01:23:09.222Z,100621.16
2023-04-30T01:25:54.190Z,100606.97
2023-04-30T01:28:26.082Z,100611.44
2023-04-30T01:30:55.532Z,100618.84
2023-04-30T01:33:23.165Z,100607.78
2023-04-30T01:36:03.955Z,100615.91
2023-04-30T01:38:43.081Z,100617.38
2023-04-30T01:41:23.797Z,100614.31
2023-04-30T01:44:04.206Z,100620.25
2023-04-30T01:46:32.511Z,100621.41
2023-04-30T01:49:11.108Z,100618.97
2023-04-30T01:51:45.505Z,100611.97
2023-04-30T01:54:22.963Z,100612.97
2023-04-30T01:57:05.062Z,100620.91
2023-04-30T01:59:37.350Z,100625.81
2023-04-30T02:02:07.551Z,100617.38
2023-04-30T02:04:36.280Z,100618.91
2023-04-30T02:07:04.278Z,100621.06
2023-04-30T02:09:32.535Z,100624.34
2023-04-30T02:12:01.182Z,100616.13
2023-04-30T02:14:33.884Z,100621.00
2023-04-30T02:17:01.694Z,100616.38
2023-04-30T02:19:29.362Z,100623.59
2023-04-30T02:21:57.187Z,100626.81
2023-04-30T02:24:25.361Z,100630.81
2023-04-30T02:26:53.029Z,100631.00
2023-04-30T02:29:20.650Z,100633.13
2023-04-30T02:31:49.888Z,100634.78
2023-04-30T02:34:17.527Z,100630.19
2023-04-30T02:36:45.185Z,100627.94
2023-04-30T02:39:12.836Z,100637.19
2023-04-30T02:41:40.461Z,100627.59
2023-04-30T02:44:08.088Z,100624.41
2023-04-30T02:46:35.850Z,100621.38
2023-04-30T02:49:13.367Z,100633.19
2023-04-30T02:51:41.364Z,100635.16
2023-04-30T02:54:09.198Z,100625.16
2023-04-30T02:56:37.016Z,100623.44
2023-04-30T02:59:04.654Z,100624.41
2023-04-30T03:01:32.452Z,100625.22
2023-04-30T03:04:00.107Z,100626.06
2023-04-30T03:06:29.601Z,100621.88
2023-04-30T03:08:57.344Z,100627.94
2023-04-30T03:11:25.277Z,100628.72
2023-04-30T03:13:53.178Z,100634.34
2023-04-30T03:16:21.896Z,100640.09
2023-04-30T03:18:50.250Z,100634.75
2023-04-30T03:21:18.054Z,100635.44
2023-04-30T03:23:47.564Z,100639.91
2023-04-30T03:26:15.278Z,100642.41
2023-04-30T03:28:42.930Z,100647.53
2023-04-30T03:31:10.713Z,100646.47
2023-04-30T03:33:38.382Z,100651.44
2023-04-30T03:36:07.381Z,100646.81
2023-04-30T03:38:35.103Z,100641.59
2023-04-30T03:41:04.540Z,100648.25
2023-04-30T03:43:35.187Z,100647.25
2023-04-30T03:46:03.098Z,100647.78
2023-04-30T03:48:32.485Z,100641.31
2023-04-30T03:51:00.245Z,100635.56
2023-04-30T03:53:28.116Z,100638.13
2023-04-30T03:55:56.103Z,100634.19
2023-04-30T03:58:25.380Z,100639.03
2023-04-30T04:00:53.582Z,100635.56
2023-04-30T04:03:22.265Z,100637.28
2023-04-30T04:05:49.917Z,100636.69
2023-04-30T04:08:18.752Z,100637.66
2023-04-30T04:10:49.950Z,100634.41
2023-04-30T04:13:17.644Z,100645.84
2023-04-30T04:15:46.839Z,100640.25
2023-04-30T04:18:17.333Z,100643.63
2023-04-30T04:20:45.280Z,100646.50
2023-04-30T04:23:13.000Z,100648.59
2023-04-30T04:25:41.573Z,100646.22
2023-04-30T04:28:09.370Z,100648.59
2023-04-30T04:30:37.750Z,100659.28
2023-04-30T04:33:06.891Z,100652.31
2023-04-30T04:35:34.880Z,100660.38
2023-04-30T04:38:02.806Z,100661.72
2023-04-30T04:40:31.770Z,100667.69
2023-04-30T04:42:59.652Z,100672.78
2023-04-30T04:45:28.651Z,100666.03
2023-04-30T04:47:56.360Z,100670.09
2023-04-30T04:50:25.779Z,100664.97
2023-04-30T04:52:54.566Z,100667.97
2023-04-30T04:55:23.197Z,100667.88
2023-04-30T04:57:51.258Z,100672.31
2023-04-30T05:00:22.218Z,100670.13
2023-04-30T05:02:50.279Z,100674.47
2023-04-30T05:05:19.818Z,100678.06
2023-04-30T05:07:52.236Z,100677.41
2023-04-30T05:10:19.836Z,100682.84
2023-04-30T05:12:47.428Z,100680.78
2023-04-30T05:15:15.026Z,100677.19
2023-04-30T05:17:45.092Z,100668.50
2023-04-30T05:20:13.782Z,100669.56
2023-04-30T05:22:41.416Z,100668.72
2023-04-30T05:25:11.435Z,100668.56
2023-04-30T05:27:40.313Z,100668.69
2023-04-30T05:30:12.219Z,100671.00
2023-04-30T05:32:40.406Z,100672.88
2023-04-30T05:35:10.370Z,100661.94
2023-04-30T05:37:37.952Z,100672.66
2023-04-30T05:40:07.119Z,100666.06
2023-04-30T05:42:36.332Z,100667.38
2023-04-30T05:45:04.172Z,100661.91
2023-04-30T05:47:31.967Z,100664.88
2023-04-30T05:49:59.646Z,100651.63
2023-04-30T05:52:27.518Z,100656.50
2023-04-30T05:54:55.114Z,100658.22
2023-04-30T05:57:26.262Z,100643.13
2023-04-30T05:59:55.725Z,100649.28
2023-04-30T06:02:23.831Z,100652.84
2023-04-30T06:04:51.817Z,100648.72
2023-04-30T06:07:20.561Z,100650.94
2023-04-30T06:09:48.171Z,100647.69
2023-04-30T06:12:15.809Z,100643.13
2023-04-30T06:14:45.492Z,100645.31
2023-04-30T06:17:15.902Z,100639.56
2023-04-30T06:19:43.489Z,100638.38
2023-04-30T06:22:12.244Z,100638.19
2023-04-30T06:24:40.005Z,100627.19
2023-04-30T06:27:07.735Z,100633.63
2023-04-30T06:29:35.565Z,100627.16
2023-04-30T06:32:03.423Z,100627.75
2023-04-30T06:34:32.723Z,100624.78
2023-04-30T06:37:00.865Z,100615.47
2023-04-30T06:39:28.547Z,100621.47
2023-04-30T06:41:56.330Z,100602.50
2023-04-30T06:44:25.442Z,100614.72
2023-04-30T06:46:53.219Z,100616.34
2023-04-30T06:49:20.885Z,100621.78
2023-04-30T06:51:50.040Z,100620.13
2023-04-30T06:54:17.633Z,100627.50
2023-04-30T06:56:45.519Z,100619.88
2023-04-30T06:59:13.175Z,100620.50
2023-04-30T07:01:41.002Z,100615.00
2023-04-30T07:04:08.875Z,100616.84
2023-04-30T07:06:36.675Z,100611.75
2023-04-30T07:09:05.697Z,100615.44
2023-04-30T07:11:37.350Z,100609.00
2023-04-30T07:14:06.261Z,100618.06
2023-04-30T07:16:36.578Z,100610.50
2023-04-30T07:19:06.502Z,100607.81
2023-04-30T07:21:34.770Z,100605.19
2023-04-30T07:24:03.633Z,100609.69
2023-04-30T07:26:40.114Z,100611.72
2023-04-30T07:29:10.132Z,100609.63
2023-04-30T07:31:37.933Z,100604.44
2023-04-30T07:34:05.770Z,100601.66
2023-04-30T07:36:33.502Z,100599.91
2023-04-30T07:39:01.412Z,100613.94
2023-04-30T07:41:32.802Z,100614.88
2023-04-30T07:44:03.226Z,100616.97
2023-04-30T07:46:31.188Z,100617.63
2023-04-30T07:48:59.609Z,100620.38
2023-04-30T07:51:28.082Z,100610.56
2023-04-30T07:53:55.954Z,100611.19
2023-04-30T07:56:23.878Z,100609.00
2023-04-30T07:58:53.250Z,100625.03
2023-04-30T08:01:21.017Z,100606.03
2023-04-30T08:03:49.963Z,100619.19
2023-04-30T08:06:18.684Z,100618.63
2023-04-30T08:08:50.516Z,100622.22
2023-04-30T08:11:18.760Z,100611.41
2023-04-30T08:13:46.763Z,100612.09
2023-04-30T08:16:16.130Z,100626.09
2023-04-30T08:18:44.986Z,100620.81
2023-04-30T08:21:13.544Z,100622.88
2023-04-30T08:23:41.266Z,100619.13
2023-04-30T08:26:11.134Z,100620.31
2023-04-30T08:28:38.841Z,100621.78
2023-04-30T08:31:06.880Z,100627.53
2023-04-30T08:33:37.088Z,100621.03
2023-04-30T08:36:05.296Z,100626.63
2023-04-30T08:38:32.993Z,100617.03
2023-04-30T08:41:12.533Z,100624.94
2023-04-30T08:43:41.106Z,100618.19
2023-04-30T08:46:09.275Z,100621.28
2023-04-30T08:48:38.560Z,100617.91
2023-04-30T08:51:06.211Z,100625.84
2023-04-30T08:53:37.864Z,100617.69
2023-04-30T08:56:06.287Z,100617.59
2023-04-30T08:58:34.141Z,100614.25
2023-04-30T09:01:02.832Z,100619.47
2023-04-30T09:03:33.386Z,100611.03
2023-04-30T09:06:03.735Z,100608.53
2023-04-30T09:08:49.579Z,100611.47
2023-04-30T09:11:25.075Z,100613.84
2023-04-30T09:13:54.723Z,100610.53
2023-04-30T09:16:23.946Z,100618.69
2023-04-30T09:18:52.098Z,100622.69
2023-04-30T09:21:32.985Z,100618.63
2023-04-30T09:24:03.079Z,100621.81
2023-04-30T09:26:34.441Z,100624.63
2023-04-30T09:29:10.355Z,100610.84
2023-04-30T09:31:39.103Z,100610.94
2023-04-30T09:34:07.449Z,100610.78
2023-04-30T09:36:38.732Z,100609.78
2023-04-30T09:39:14.242Z,100604.47
2023-04-30T09:41:43.362Z,100597.69
2023-04-30T09:44:27.590Z,100601.78
2023-04-30T09:46:56.768Z,100599.06
2023-04-30T09:49:24.444Z,100593.59
2023-04-30T09:52:00.900Z,100591.94
2023-04-30T09:54:39.670Z,100595.31
2023-04-30T09:57:14.961Z,100589.28
2023-04-30T09:59:50.141Z,100588.59
2023-04-30T10:02:20.042Z,100590.84
2023-04-30T10:04:55.021Z,100597.47
2023-04-30T10:07:26.168Z,100585.75
2023-04-30T10:09:59.859Z,100576.84
2023-04-30T10:12:36.114Z,100580.16
2023-04-30T10:15:11.611Z,100573.16
2023-04-30T10:17:42.472Z,100573.44
2023-04-30T10:20:11.098Z,100573.91
2023-04-30T10:22:41.759Z,100569.31
2023-04-30T10:25:13.843Z,100560.13
2023-04-30T10:27:41.972Z,100560.94
2023-04-30T10:30:11.963Z,100558.47
2023-04-30T10:32:48.569Z,100545.84
2023-04-30T10:35:22.021Z,100537.75
2023-04-30T10:37:56.306Z,100543.06
2023-04-30T10:40:24.139Z,100539.34
2023-04-30T10:42:55.565Z,100532.16
2023-04-30T10:45:36.623Z,100534.59
2023-04-30T10:48:04.663Z,100516.09
2023-04-30T10:50:32.643Z,100518.44
2023-04-30T10:53:05.287Z,100522.06
2023-04-30T10:55:33.726Z,100518.78
2023-04-30T10:58:02.529Z,100540.72
2023-04-30T11:00:31.878Z,100519.94
2023-04-30T11:03:04.806Z,100514.88
2023-04-30T11:05:39.331Z,100512.00
2023-04-30T11:08:12.655Z,100522.56
2023-04-30T11:10:58.850Z,100502.41
2023-04-30T11:13:27.835Z,100504.84
2023-04-30T11:15:55.933Z,100490.28
2023-04-30T11:18:25.123Z,100494.41
2023-04-30T11:20:53.997Z,100494.28
2023-04-30T11:23:38.433Z,100487.66
2023-04-30T11:26:08.941Z,100479.53
2023-04-30T11:28:38.184Z,100487.41
2023-04-30T11:31:06.788Z,100483.06
2023-04-30T11:33:36.210Z,100482.72
2023-04-30T11:36:04.050Z,100476.69
2023-04-30T11:38:36.171Z,100468.66
2023-04-30T11:41:12.840Z,100471.13
2023-04-30T11:43:41.375Z,100462.63
2023-04-30T11:46:11.452Z,100459.47
2023-04-30T11:48:40.592Z,100452.72
2023-04-30T11:51:16.079Z,100457.13
2023-04-30T11:53:48.111Z,100459.47
2023-04-30T11:56:18.844Z,100453.78
2023-04-30T11:58:48.968Z,100448.22
2023-04-30T12:01:17.525Z,100459.41
2023-04-30T12:06:40.890Z,100447.19
2023-04-30T12:09:11.738Z,100429.75
2023-04-30T12:11:42.587Z,100424.25
2023-04-30T12:14:16.109Z,100436.00
2023-04-30T12:16:49.094Z,100431.81
2023-04-30T12:19:20.831Z,100425.50
2023-04-30T12:21:50.104Z,100424.94
2023-04-30T12:24:24.363Z,100421.03
2023-04-30T12:26:54.606Z,100416.03
2023-04-30T12:29:25.520Z,100417.91
2023-04-30T12:31:58.024Z,100426.56
2023-04-30T12:34:28.341Z,100426.03
2023-04-30T12:36:59.136Z,100419.25
2023-04-30T12:39:34.821Z,100429.38
2023-04-30T12:42:03.420Z,100419.06
2023-04-30T12:44:31.209Z,100415.09
2023-04-30T12:47:00.833Z,100411.47
2023-04-30T12:49:31.797Z,100413.78
2023-04-30T12:52:09.246Z,100409.31
2023-04-30T12:54:41.572Z,100401.59
2023-04-30T12:57:12.087Z,100400.66
2023-04-30T12:59:40.795Z,100393.81
2023-04-30T13:02:10.455Z,100409.06
2023-04-30T13:04:38.841Z,100392.84
2023-04-30T13:07:07.947Z,100393.88
2023-04-30T13:09:37.872Z,100388.19
2023-04-30T13:12:08.065Z,100395.03
2023-04-30T13:14:36.659Z,100386.88
2023-04-30T13:17:07.409Z,100382.56
2023-04-30T13:19:35.268Z,100372.66
2023-04-30T13:22:03.036Z,100376.81
2023-04-30T13:24:31.228Z,100373.56
2023-04-30T13:26:59.662Z,100382.50
2023-04-30T13:29:33.213Z,100370.47
2023-04-30T13:32:00.807Z,100371.63
2023-04-30T13:34:28.571Z,100382.41
2023-04-30T13:36:56.479Z,100369.16
2023-04-30T13:39:25.091Z,100363.59
2023-04-30T13:41:52.712Z,100366.28
2023-04-30T13:44:20.337Z,100361.41
2023-04-30T13:46:50.306Z,100361.31
2023-04-30T13:49:18.136Z,100348.47
2023-04-30T13:51:45.803Z,100348.78
2023-04-30T13:54:13.425Z,100355.19
2023-04-30T13:56:41.154Z,100341.31
2023-04-30T14:01:53.597Z,100345.47
2023-04-30T14:04:21.172Z,100339.09
2023-04-30T14:06:49.281Z,100350.31
2023-04-30T14:09:17.975Z,100345.50
2023-04-30T14:11:45.827Z,100340.50
2023-04-30T14:14:13.839Z,100339.38
2023-04-30T14:16:42.477Z,100334.72
2023-04-30T14:19:11.736Z,100336.63
2023-04-30T14:21:39.435Z,100344.03
2023-04-30T14:24:07.879Z,100344.25
2023-04-30T14:26:35.564Z,100334.84
2023-04-30T14:29:03.411Z,100334.44
2023-04-30T14:31:31.349Z,100333.22
2023-04-30T14:33:59.407Z,100336.19
2023-04-30T14:36:29.220Z,100325.38
2023-04-30T14:38:56.966Z,100317.69
2023-04-30T14:41:24.643Z,100328.63
2023-04-30T14:43:52.695Z,100317.59
2023-04-30T14:46:20.428Z,100328.25
2023-04-30T14:48:48.030Z,100321.75
2023-04-30T14:51:16.605Z,100308.50
2023-04-30T14:53:45.728Z,100318.50
2023-04-30T14:56:13.954Z,100312.25
2023-04-30T14:58:41.674Z,100308.16
2023-04-30T15:01:09.922Z,100315.50
2023-04-30T15:03:38.235Z,100304.34
2023-04-30T15:06:06.421Z,100305.25
2023-04-30T15:08:34.074Z,100309.91
2023-04-30T15:11:03.859Z,100298.75
2023-04-30T15:13:31.506Z,100302.28
2023-04-30T15:15:59.532Z,100294.63
2023-04-30T15:18:27.775Z,100300.38
2023-04-30T15:20:55.637Z,100300.56
2023-04-30T15:23:23.300Z,100300.06
2023-04-30T15:25:51.628Z,100294.63
2023-04-30T15:28:24.306Z,100306.81
2023-04-30T15:30:52.440Z,100294.38
2023-04-30T15:33:24.385Z,100296.09
2023-04-30T15:35:52.099Z,100291.72
2023-04-30T15:38:20.302Z,100279.44
2023-04-30T15:40:49.285Z,100289.69
2023-04-30T15:43:17.897Z,100284.50
2023-04-30T15:45:50.568Z,100286.44
2023-04-30T15:48:20.272Z,100290.94
2023-04-30T15:50:48.521Z,100282.28
2023-04-30T15:53:16.253Z,100281.81
2023-04-30T15:55:44.048Z,100279.69
2023-04-30T15:58:12.980Z,100270.22
2023-04-30T16:00:41.367Z,100273.41
2023-04-30T16:03:10.670Z,100282.81
2023-04-30T16:05:40.416Z,100279.63
2023-04-30T16:08:11.225Z,100276.41
2023-04-30T16:10:40.018Z,100280.75
2023-04-30T16:13:07.621Z,100278.16
2023-04-30T16:15:36.431Z,100265.28
2023-04-30T16:18:04.101Z,100262.91
2023-04-30T16:20:33.335Z,100263.41
2023-04-30T16:23:01.175Z,100254.06
2023-04-30T16:25:29.067Z,100265.13
2023-04-30T16:27:58.115Z,100261.81
2023-04-30T16:30:26.860Z,100269.25
2023-04-30T16:32:54.495Z,100261.50
2023-04-30T16:35:27.220Z,100262.47
2023-04-30T16:37:59.671Z,100257.06
2023-04-30T16:40:29.057Z,100261.53
2023-04-30T16:42:57.919Z,100264.63
2023-04-30T16:45:26.582Z,100260.09
2023-04-30T16:47:54.296Z,100260.66
2023-04-30T16:50:24.198Z,100251.34
2023-04-30T16:52:51.886Z,100257.91
2023-04-30T16:55:23.454Z,100255.41
2023-04-30T16:57:51.485Z,100255.78
2023-04-30T17:00:19.546Z,100248.56
2023-04-30T17:02:48.860Z,100245.00
2023-04-30T17:05:16.963Z,100242.47
2023-04-30T17:07:44.949Z,100250.59
2023-04-30T17:10:14.875Z,100248.97
2023-04-30T17:12:44.495Z,100237.91
2023-04-30T17:15:12.959Z,100252.34
2023-04-30T17:17:40.821Z,100242.88
2023-04-30T17:20:09.167Z,100238.69
2023-04-30T17:22:38.130Z,100244.22
2023-04-30T17:25:10.140Z,100250.25
2023-04-30T17:27:40.109Z,100237.97
2023-04-30T17:30:10.476Z,100246.94
2023-04-30T17:32:39.656Z,100240.78
2023-04-30T17:35:12.435Z,100240.22
2023-04-30T17:37:40.415Z,100243.72
2023-04-30T17:40:09.845Z,100237.72
2023-04-30T17:42:38.835Z,100240.06
2023-04-30T17:45:07.855Z,100242.16
2023-04-30T17:47:36.964Z,100245.63
2023-04-30T17:50:08.342Z,100240.59
2023-04-30T17:52:39.096Z,100238.00
2023-04-30T17:55:08.210Z,100236.47
2023-04-30T17:57:36.258Z,100250.88
2023-04-30T18:00:05.374Z,100248.03
2023-04-30T18:02:33.327Z,100251.47
2023-04-30T18:05:06.359Z,100246.03
2023-04-30T18:07:35.014Z,100252.50
2023-04-30T18:10:04.165Z,100246.25
2023-04-30T18:12:31.926Z,100248.84
2023-04-30T18:15:00.558Z,100251.66
2023-04-30T18:17:29.336Z,100249.75
2023-04-30T18:19:57.281Z,100244.22
2023-04-30T18:22:26.597Z,100251.53
2023-04-30T18:24:55.472Z,100256.22
2023-04-30T18:27:25.386Z,100256.19
2023-04-30T18:30:00.798Z,100251.00
2023-04-30T18:32:29.124Z,100250.06
2023-04-30T18:34:56.893Z,100254.16
2023-04-30T18:37:26.046Z,100245.63
2023-04-30T18:39:53.751Z,100250.56
2023-04-30T18:42:22.966Z,100247.53
2023-04-30T18:44:52.992Z,100243.22
2023-04-30T18:47:23.007Z,100240.81
2023-04-30T18:49:50.906Z,100253.03
2023-04-30T18:52:18.849Z,100252.75
2023-04-30T18:54:47.985Z,100256.13
2023-04-30T18:57:18.193Z,100258.94
2023-04-30T18:59:45.918Z,100255.94
2023-04-30T19:02:14.066Z,100253.00
2023-04-30T19:04:44.336Z,100252.63
2023-04-30T19:07:12.965Z,100262.84
2023-04-30T19:09:45.146Z,100261.25
2023-04-30T19:12:15.227Z,100267.97
2023-04-30T19:14:44.623Z,100269.59
2023-04-30T19:17:14.057Z,100271.31
2023-04-30T19:19:47.174Z,100267.63
2023-04-30T19:22:15.198Z,100270.16
2023-04-30T19:24:43.135Z,100276.94
2023-04-30T19:27:12.366Z,100277.31
2023-04-30T19:29:43.200Z,100275.69
2023-04-30T19:32:12.341Z,100280.94
2023-04-30T19:34:40.239Z,100285.75
2023-04-30T19:37:08.015Z,100287.06
2023-04-30T19:39:37.040Z,100290.19
2023-04-30T19:42:05.944Z,100290.41
2023-04-30T19:44:33.529Z,100296.28
2023-04-30T19:47:03.478Z,100296.53
2023-04-30T19:49:33.643Z,100291.09
2023-04-30T19:52:01.450Z,100287.22
2023-04-30T19:54:30.252Z,100287.84
2023-04-30T19:56:58.107Z,100294.97
2023-04-30T19:59:26.829Z,100299.16
2023-04-30T20:01:54.613Z,100291.53
2023-04-30T20:04:24.865Z,100292.34
2023-04-30T20:06:56.905Z,100297.13
2023-04-30T20:09:25.025Z,100287.41
2023-04-30T20:11:52.658Z,100296.97
2023-04-30T20:14:22.066Z,100291.72
2023-04-30T20:16:53.974Z,100299.28
2023-04-30T20:19:23.360Z,100293.03
2023-04-30T20:21:51.495Z,100296.78
2023-04-30T20:24:21.691Z,100299.94
2023-04-30T20:26:52.088Z,100298.91
2023-04-30T20:29:20.664Z,100302.66
2023-04-30T20:31:48.523Z,100304.97
2023-04-30T20:34:16.395Z,100295.44
2023-04-30T20:36:45.761Z,100303.97
2023-04-30T20:39:14.451Z,100298.38
2023-04-30T20:41:42.160Z,100310.84
2023-04-30T20:44:10.132Z,100305.91
2023-04-30T20:46:38.623Z,100306.72
2023-04-30T20:49:06.220Z,100311.50
2023-04-30T20:51:34.019Z,100303.25
2023-04-30T20:54:03.698Z,100310.06
2023-04-30T20:56:32.105Z,100305.69
2023-04-30T20:59:02.354Z,100307.78
2023-04-30T21:01:30.123Z,100300.34
2023-04-30T21:03:58.075Z,100312.38
2023-04-30T21:06:26.761Z,100316.72
2023-04-30T21:08:54.705Z,100319.44
2023-04-30T21:11:23.657Z,100317.38
2023-04-30T21:13:53.624Z,100326.72
2023-04-30T21:16:21.797Z,100317.19
2023-04-30T21:18:49.559Z,100311.78
2023-04-30T21:21:18.348Z,100323.19
2023-04-30T21:23:48.034Z,100326.91
2023-04-30T21:26:16.522Z,100323.59
2023-04-30T21:28:46.855Z,100323.19
2023-04-30T21:31:15.802Z,100323.78
2023-04-30T21:33:43.433Z,100324.22
2023-04-30T21:36:11.045Z,100328.59
2023-04-30T21:38:39.033Z,100325.06
2023-04-30T21:41:08.925Z,100317.59
2023-04-30T21:43:37.002Z,100317.38
2023-04-30T21:46:06.172Z,100316.56
2023-04-30T21:48:34.570Z,100323.00
2023-04-30T21:51:04.348Z,100317.59
2023-04-30T21:53:34.296Z,100325.25
2023-04-30T21:56:07.909Z,100315.31
2023-04-30T21:58:35.927Z,100311.31
2023-04-30T22:01:06.368Z,100316.09
2023-04-30T22:03:47.135Z,100315.09
2023-04-30T22:06:15.150Z,100314.47
2023-04-30T22:08:43.012Z,100312.78
2023-04-30T22:11:12.108Z,100316.16
2023-04-30T22:13:39.689Z,100316.31
2023-04-30T22:16:09.845Z,100321.06
2023-04-30T22:18:39.700Z,100321.28
2023-04-30T22:21:07.424Z,100312.16
2023-04-30T22:23:35.279Z,100320.84
2023-04-30T22:26:04.903Z,100316.50
2023-04-30T22:28:32.632Z,100319.66
2023-04-30T22:31:00.551Z,100315.28
2023-04-30T22:33:28.794Z,100314.03
2023-04-30T22:35:59.342Z,100316.16
2023-04-30T22:38:27.007Z,100310.13
2023-04-30T22:40:54.581Z,100309.91
2023-04-30T22:46:04.369Z,100308.28
2023-04-30T22:48:32.016Z,100308.88
2023-04-30T22:51:01.253Z,100300.00
2023-04-30T22:53:29.940Z,100298.94
2023-04-30T22:55:58.399Z,100298.13
2023-04-30T22:58:26.045Z,100295.00
2023-04-30T23:00:53.822Z,100298.53
2023-04-30T23:03:21.486Z,100299.56
2023-04-30T23:05:51.424Z,100297.31
2023-04-30T23:08:20.592Z,100293.34
2023-04-30T23:10:48.857Z,100297.91
2023-04-30T23:13:18.596Z,100287.97
2023-04-30T23:15:46.291Z,100290.00
2023-04-30T23:18:13.838Z,100284.59
2023-04-30T23:20:41.783Z,100279.88
2023-04-30T23:23:10.300Z,100291.06
2023-04-30T23:25:39.280Z,100289.22
2023-04-30T23:28:07.857Z,100290.22
2023-04-30T23:30:38.683Z,100283.56
2023-04-30T23:33:06.430Z,100283.78
2023-04-30T23:35:34.029Z,100279.22
2023-04-30T23:38:01.876Z,100278.19
2023-04-30T23:40:29.575Z,100274.25
2023-04-30T23:43:01.664Z,100271.81
2023-04-30T23:45:29.477Z,100275.69
2023-04-30T23:47:57.650Z,100271.75
2023-04-30T23:50:25.954Z,100267.00
2023-04-30T23:52:53.683Z,100254.38
2023-04-30T23:55:21.823Z,100258.53
2023-04-30T23:57:49.695Z,100257.69
